sensor_id;sensor_type;location;lat;lon;timestamp;P1;durP1;ratioP1;P2;durP2;ratioP2
66870;SDS011;53780;44.998;9.926;2022-10-16T06:01:13;123.45;;;47.88;;
66870;SDS011;53780;44.998;9.926;2022-10-16T06:04:19;117.47;;;44.25;;
66870;SDS011;53780;44.998;9.926;2022-10-16T06:07:22;116.28;;;45.85;;
66870;SDS011;53780;44.998;9.926;2022-10-16T06:10:27;119.90;;;46.60;;
66870;SDS011;53780;44.998;9.926;2022-10-16T06:13:32;112.53;;;45.33;;
66870;SDS011;53780;44.998;9.926;2022-10-16T06:16:36;121.85;;;46.03;;
66870;SDS011;53780;44.998;9.926;2022-10-16T06:19:40;116.63;;;45.10;;
66870;SDS011;53780;44.998;9.926;2022-10-16T06:22:44;112.75;;;44.47;;
66870;SDS011;53780;44.998;9.926;2022-10-16T06:25:48;117.37;;;44.97;;
66870;SDS011;53780;44.998;9.926;2022-10-16T06:28:56;113.53;;;44.22;;
66870;SDS011;53780;44.998;9.926;2022-10-16T06:32:01;113.18;;;43.95;;
66870;SDS011;53780;44.998;9.926;2022-10-16T06:35:05;115.63;;;45.22;;
66870;SDS011;53780;44.998;9.926;2022-10-16T06:38:09;114.20;;;44.47;;
66870;SDS011;53780;44.998;9.926;2022-10-16T06:41:13;107.80;;;44.03;;
66870;SDS011;53780;44.998;9.926;2022-10-16T06:44:19;115.28;;;44.88;;
66870;SDS011;53780;44.998;9.926;2022-10-16T06:47:23;108.97;;;44.28;;
66870;SDS011;53780;44.998;9.926;2022-10-16T06:50:27;114.35;;;45.05;;
66870;SDS011;53780;44.998;9.926;2022-10-16T06:53:32;122.65;;;46.35;;
66870;SDS011;53780;44.998;9.926;2022-10-16T06:56:38;117.67;;;47.80;;
66870;SDS011;53780;44.998;9.926;2022-10-16T06:59:42;121.97;;;47.22;;
66870;SDS011;53780;44.998;9.926;2022-10-16T07:02:46;120.38;;;47.10;;
66870;SDS011;53780;44.998;9.926;2022-10-16T07:05:49;113.60;;;44.65;;
66870;SDS011;53780;44.998;9.926;2022-10-16T07:08:53;118.57;;;47.90;;
66870;SDS011;53780;44.998;9.926;2022-10-16T07:11:57;117.90;;;47.40;;
66870;SDS011;53780;44.998;9.926;2022-10-16T07:15:01;125.53;;;48.03;;
66870;SDS011;53780;44.998;9.926;2022-10-16T07:18:05;132.15;;;48.35;;
66870;SDS011;53780;44.998;9.926;2022-10-16T07:21:10;119.30;;;47.92;;
66870;SDS011;53780;44.998;9.926;2022-10-16T07:24:22;124.13;;;45.88;;
66870;SDS011;53780;44.998;9.926;2022-10-16T07:27:27;132.83;;;46.90;;
66870;SDS011;53780;44.998;9.926;2022-10-16T07:30:34;120.10;;;47.25;;
66870;SDS011;53780;44.998;9.926;2022-10-16T07:33:39;113.05;;;46.67;;
66870;SDS011;53780;44.998;9.926;2022-10-16T07:36:47;105.57;;;44.30;;
66870;SDS011;53780;44.998;9.926;2022-10-16T07:39:52;125.43;;;46.97;;
66870;SDS011;53780;44.998;9.926;2022-10-16T07:42:56;107.73;;;44.23;;
66870;SDS011;53780;44.998;9.926;2022-10-16T07:46:00;108.82;;;44.53;;
66870;SDS011;53780;44.998;9.926;2022-10-16T07:49:04;105.95;;;45.08;;
66870;SDS011;53780;44.998;9.926;2022-10-16T07:52:08;103.88;;;43.40;;
66870;SDS011;53780;44.998;9.926;2022-10-16T07:55:12;102.95;;;43.50;;
66870;SDS011;53780;44.998;9.926;2022-10-16T07:58:17;99.40;;;43.80;;
66870;SDS011;53780;44.998;9.926;2022-10-16T08:01:20;97.65;;;43.35;;
66870;SDS011;53780;44.998;9.926;2022-10-16T08:04:24;101.25;;;43.28;;
66870;SDS011;53780;44.998;9.926;2022-10-16T08:07:28;97.55;;;43.13;;
66870;SDS011;53780;44.998;9.926;2022-10-16T08:10:31;90.18;;;41.20;;
66870;SDS011;53780;44.998;9.926;2022-10-16T08:13:35;107.50;;;43.50;;
66870;SDS011;53780;44.998;9.926;2022-10-16T08:16:39;89.80;;;40.78;;
66870;SDS011;53780;44.998;9.926;2022-10-16T08:19:46;93.93;;;41.28;;
66870;SDS011;53780;44.998;9.926;2022-10-16T08:22:51;95.25;;;41.08;;
66870;SDS011;53780;44.998;9.926;2022-10-16T08:25:56;89.60;;;40.17;;
66870;SDS011;53780;44.998;9.926;2022-10-16T08:29:06;88.60;;;41.10;;
66870;SDS011;53780;44.998;9.926;2022-10-16T08:32:12;87.65;;;41.58;;
66870;SDS011;53780;44.998;9.926;2022-10-16T08:35:17;88.88;;;40.08;;
66870;SDS011;53780;44.998;9.926;2022-10-16T08:38:21;90.38;;;42.17;;
66870;SDS011;53780;44.998;9.926;2022-10-16T08:51:07;92.00;;;43.35;;
66870;SDS011;53780;44.998;9.926;2022-10-16T08:57:27;85.97;;;41.83;;
66870;SDS011;53780;44.998;9.926;2022-10-16T09:00:31;83.40;;;41.90;;
66870;SDS011;53780;44.998;9.926;2022-10-16T09:03:52;81.35;;;43.42;;
66870;SDS011;53780;44.998;9.926;2022-10-16T09:07:15;79.45;;;43.97;;
66870;SDS011;53780;44.998;9.926;2022-10-16T09:10:33;88.53;;;46.17;;
66870;SDS011;53780;44.998;9.926;2022-10-16T09:13:43;78.13;;;43.60;;
66870;SDS011;53780;44.998;9.926;2022-10-16T09:17:00;83.60;;;48.10;;
66870;SDS011;53780;44.998;9.926;2022-10-16T09:20:32;80.47;;;46.45;;
66870;SDS011;53780;44.998;9.926;2022-10-16T09:23:52;85.03;;;44.88;;
66870;SDS011;53780;44.998;9.926;2022-10-16T09:27:00;81.70;;;45.28;;
66870;SDS011;53780;44.998;9.926;2022-10-16T09:30:14;76.20;;;43.58;;
66870;SDS011;53780;44.998;9.926;2022-10-16T09:33:23;79.77;;;45.40;;
66870;SDS011;53780;44.998;9.926;2022-10-16T09:36:38;81.40;;;44.55;;
66870;SDS011;53780;44.998;9.926;2022-10-16T09:39:48;75.60;;;41.72;;
66870;SDS011;53780;44.998;9.926;2022-10-16T09:49:31;66.60;;;37.90;;
66870;SDS011;53780;44.998;9.926;2022-10-16T09:52:35;62.80;;;37.75;;
66870;SDS011;53780;44.998;9.926;2022-10-16T09:55:54;62.83;;;38.70;;
66870;SDS011;53780;44.998;9.926;2022-10-16T09:58:59;62.30;;;37.50;;
66870;SDS011;53780;44.998;9.926;2022-10-16T10:02:08;64.22;;;37.47;;
66870;SDS011;53780;44.998;9.926;2022-10-16T10:05:21;64.27;;;38.73;;
66870;SDS011;53780;44.998;9.926;2022-10-16T10:08:29;60.42;;;35.05;;
66870;SDS011;53780;44.998;9.926;2022-10-16T10:14:50;64.22;;;36.03;;
66870;SDS011;53780;44.998;9.926;2022-10-16T10:17:56;61.88;;;36.95;;
66870;SDS011;53780;44.998;9.926;2022-10-16T10:21:01;57.20;;;33.70;;
66870;SDS011;53780;44.998;9.926;2022-10-16T10:24:09;62.95;;;37.05;;
66870;SDS011;53780;44.998;9.926;2022-10-16T10:27:15;56.92;;;33.60;;
66870;SDS011;53780;44.998;9.926;2022-10-16T10:30:23;57.83;;;35.75;;
66870;SDS011;53780;44.998;9.926;2022-10-16T10:37:33;55.47;;;33.43;;
66870;SDS011;53780;44.998;9.926;2022-10-16T10:51:04;45.65;;;27.80;;
66870;SDS011;53780;44.998;9.926;2022-10-16T10:54:14;55.83;;;33.23;;
66870;SDS011;53780;44.998;9.926;2022-10-16T10:57:34;61.60;;;32.63;;
66870;SDS011;53780;44.998;9.926;2022-10-16T11:01:10;56.53;;;30.27;;
66870;SDS011;53780;44.998;9.926;2022-10-16T11:07:36;50.17;;;27.77;;
66870;SDS011;53780;44.998;9.926;2022-10-16T11:10:50;48.73;;;26.43;;
66870;SDS011;53780;44.998;9.926;2022-10-16T11:14:00;49.95;;;27.20;;
66870;SDS011;53780;44.998;9.926;2022-10-16T11:17:10;50.58;;;27.02;;
66870;SDS011;53780;44.998;9.926;2022-10-16T11:20:23;46.38;;;25.90;;
66870;SDS011;53780;44.998;9.926;2022-10-16T11:23:36;47.42;;;27.38;;
66870;SDS011;53780;44.998;9.926;2022-10-16T11:26:46;50.50;;;28.83;;
66870;SDS011;53780;44.998;9.926;2022-10-16T11:29:58;55.50;;;29.77;;
66870;SDS011;53780;44.998;9.926;2022-10-16T11:36:15;57.85;;;30.85;;
66870;SDS011;53780;44.998;9.926;2022-10-16T11:39:27;48.45;;;27.02;;
66870;SDS011;53780;44.998;9.926;2022-10-16T11:42:36;45.37;;;24.90;;
66870;SDS011;53780;44.998;9.926;2022-10-16T11:45:48;51.47;;;25.95;;
66870;SDS011;53780;44.998;9.926;2022-10-16T11:49:32;47.85;;;26.80;;
66870;SDS011;53780;44.998;9.926;2022-10-16T11:52:40;47.70;;;26.40;;
66870;SDS011;53780;44.998;9.926;2022-10-16T11:55:55;48.00;;;27.75;;
66870;SDS011;53780;44.998;9.926;2022-10-16T11:59:00;51.40;;;26.57;;
66870;SDS011;53780;44.998;9.926;2022-10-16T12:08:47;48.70;;;25.63;;
66870;SDS011;53780;44.998;9.926;2022-10-16T12:11:51;47.50;;;25.60;;
66870;SDS011;53780;44.998;9.926;2022-10-16T12:15:30;57.87;;;26.47;;
66870;SDS011;53780;44.998;9.926;2022-10-16T12:18:32;48.75;;;24.92;;
66870;SDS011;53780;44.998;9.926;2022-10-16T12:21:36;42.15;;;23.55;;
66870;SDS011;53780;44.998;9.926;2022-10-16T12:24:42;48.25;;;25.90;;
66870;SDS011;53780;44.998;9.926;2022-10-16T12:27:52;47.50;;;25.30;;
66870;SDS011;53780;44.998;9.926;2022-10-16T12:31:07;43.97;;;23.67;;
66870;SDS011;53780;44.998;9.926;2022-10-16T12:34:22;43.65;;;23.52;;
66870;SDS011;53780;44.998;9.926;2022-10-16T12:37:34;45.92;;;23.00;;
66870;SDS011;53780;44.998;9.926;2022-10-16T12:40:40;41.28;;;22.70;;
66870;SDS011;53780;44.998;9.926;2022-10-16T12:43:46;40.88;;;21.63;;
66870;SDS011;53780;44.998;9.926;2022-10-16T12:46:51;39.63;;;21.57;;
66870;SDS011;53780;44.998;9.926;2022-10-16T12:49:56;40.70;;;21.75;;
66870;SDS011;53780;44.998;9.926;2022-10-16T12:53:01;40.92;;;21.92;;
66870;SDS011;53780;44.998;9.926;2022-10-16T12:56:16;38.92;;;22.35;;
66870;SDS011;53780;44.998;9.926;2022-10-16T13:26:34;33.17;;;18.27;;
66870;SDS011;53780;44.998;9.926;2022-10-16T13:29:46;37.22;;;19.08;;
66870;SDS011;53780;44.998;9.926;2022-10-16T13:36:22;37.93;;;20.27;;
66870;SDS011;53780;44.998;9.926;2022-10-16T13:39:29;37.00;;;19.02;;
66870;SDS011;53780;44.998;9.926;2022-10-16T13:42:33;33.80;;;19.60;;
66870;SDS011;53780;44.998;9.926;2022-10-16T13:45:38;34.55;;;18.35;;
66870;SDS011;53780;44.998;9.926;2022-10-16T13:48:42;36.92;;;19.00;;
66870;SDS011;53780;44.998;9.926;2022-10-16T13:51:56;35.73;;;18.90;;
66870;SDS011;53780;44.998;9.926;2022-10-16T13:55:04;31.90;;;17.27;;
66870;SDS011;53780;44.998;9.926;2022-10-16T13:58:16;39.30;;;18.42;;
66870;SDS011;53780;44.998;9.926;2022-10-16T14:01:22;34.55;;;17.73;;
66870;SDS011;53780;44.998;9.926;2022-10-16T14:04:31;34.30;;;18.25;;
66870;SDS011;53780;44.998;9.926;2022-10-16T14:07:37;36.20;;;19.17;;
66870;SDS011;53780;44.998;9.926;2022-10-16T14:10:42;34.28;;;17.50;;
66870;SDS011;53780;44.998;9.926;2022-10-16T14:13:46;36.80;;;18.13;;
66870;SDS011;53780;44.998;9.926;2022-10-16T14:16:51;37.35;;;17.92;;
66870;SDS011;53780;44.998;9.926;2022-10-16T14:19:56;38.92;;;18.85;;
66870;SDS011;53780;44.998;9.926;2022-10-16T14:23:18;34.57;;;17.40;;
66870;SDS011;53780;44.998;9.926;2022-10-16T14:26:25;35.78;;;18.15;;
66870;SDS011;53780;44.998;9.926;2022-10-16T14:29:30;35.83;;;19.52;;
66870;SDS011;53780;44.998;9.926;2022-10-16T14:32:35;35.58;;;19.38;;
66870;SDS011;53780;44.998;9.926;2022-10-16T14:35:39;40.72;;;20.17;;
66870;SDS011;53780;44.998;9.926;2022-10-16T14:38:48;37.27;;;18.97;;
66870;SDS011;53780;44.998;9.926;2022-10-16T14:42:16;35.10;;;18.88;;
66870;SDS011;53780;44.998;9.926;2022-10-16T14:45:27;39.05;;;18.10;;
66870;SDS011;53780;44.998;9.926;2022-10-16T14:48:33;34.00;;;17.40;;
66870;SDS011;53780;44.998;9.926;2022-10-16T14:51:37;29.98;;;15.52;;
66870;SDS011;53780;44.998;9.926;2022-10-16T14:54:47;31.47;;;15.70;;
66870;SDS011;53780;44.998;9.926;2022-10-16T14:57:52;30.83;;;15.60;;
66870;SDS011;53780;44.998;9.926;2022-10-16T15:00:56;30.02;;;14.77;;
66870;SDS011;53780;44.998;9.926;2022-10-16T15:04:00;31.17;;;15.55;;
66870;SDS011;53780;44.998;9.926;2022-10-16T15:07:04;30.52;;;15.10;;
66870;SDS011;53780;44.998;9.926;2022-10-16T15:10:08;27.50;;;13.87;;
66870;SDS011;53780;44.998;9.926;2022-10-16T15:13:13;31.30;;;14.95;;
66870;SDS011;53780;44.998;9.926;2022-10-16T15:16:17;28.98;;;14.38;;
66870;SDS011;53780;44.998;9.926;2022-10-16T15:19:21;25.88;;;13.77;;
66870;SDS011;53780;44.998;9.926;2022-10-16T15:22:25;25.95;;;12.82;;
66870;SDS011;53780;44.998;9.926;2022-10-16T15:28:39;22.63;;;12.32;;
66870;SDS011;53780;44.998;9.926;2022-10-16T15:31:42;22.15;;;11.25;;
66870;SDS011;53780;44.998;9.926;2022-10-16T15:34:46;22.75;;;10.95;;
66870;SDS011;53780;44.998;9.926;2022-10-16T15:37:50;22.15;;;10.88;;
66870;SDS011;53780;44.998;9.926;2022-10-16T15:40:54;23.00;;;11.53;;
66870;SDS011;53780;44.998;9.926;2022-10-16T15:43:58;22.35;;;10.48;;
66870;SDS011;53780;44.998;9.926;2022-10-16T15:47:02;21.15;;;10.95;;
66870;SDS011;53780;44.998;9.926;2022-10-16T15:50:06;22.58;;;10.50;;
66870;SDS011;53780;44.998;9.926;2022-10-16T15:53:11;17.48;;;9.20;;
66870;SDS011;53780;44.998;9.926;2022-10-16T15:56:15;17.73;;;9.07;;
66870;SDS011;53780;44.998;9.926;2022-10-16T15:59:19;15.32;;;8.63;;
66870;SDS011;53780;44.998;9.926;2022-10-16T16:02:23;16.40;;;8.50;;
66870;SDS011;53780;44.998;9.926;2022-10-16T16:05:27;17.15;;;9.35;;
66870;SDS011;53780;44.998;9.926;2022-10-16T16:08:32;16.40;;;8.55;;
66870;SDS011;53780;44.998;9.926;2022-10-16T16:11:37;18.17;;;8.23;;
66870;SDS011;53780;44.998;9.926;2022-10-16T16:14:42;17.58;;;7.80;;
66870;SDS011;53780;44.998;9.926;2022-10-16T16:17:49;14.77;;;7.70;;
66870;SDS011;53780;44.998;9.926;2022-10-16T16:20:53;17.67;;;8.52;;
66870;SDS011;53780;44.998;9.926;2022-10-16T16:23:57;15.40;;;8.13;;
66870;SDS011;53780;44.998;9.926;2022-10-16T16:27:01;14.87;;;7.70;;
66870;SDS011;53780;44.998;9.926;2022-10-16T16:30:09;16.40;;;8.43;;
66870;SDS011;53780;44.998;9.926;2022-10-16T16:33:14;16.77;;;8.45;;
66870;SDS011;53780;44.998;9.926;2022-10-16T16:36:18;13.98;;;8.43;;
66870;SDS011;53780;44.998;9.926;2022-10-16T16:39:22;19.45;;;8.93;;
66870;SDS011;53780;44.998;9.926;2022-10-16T16:42:27;17.33;;;8.47;;
66870;SDS011;53780;44.998;9.926;2022-10-16T16:45:35;15.38;;;8.30;;
66870;SDS011;53780;44.998;9.926;2022-10-16T16:48:39;17.73;;;8.38;;
66870;SDS011;53780;44.998;9.926;2022-10-16T16:51:44;15.95;;;7.90;;
66870;SDS011;53780;44.998;9.926;2022-10-16T16:54:48;17.77;;;8.43;;
66870;SDS011;53780;44.998;9.926;2022-10-16T16:57:55;15.97;;;8.57;;
66870;SDS011;53780;44.998;9.926;2022-10-16T17:01:00;18.00;;;9.13;;
66870;SDS011;53780;44.998;9.926;2022-10-16T17:04:06;17.98;;;9.07;;
66870;SDS011;53780;44.998;9.926;2022-10-16T17:07:10;18.40;;;9.23;;
66870;SDS011;53780;44.998;9.926;2022-10-16T17:10:14;18.08;;;9.50;;
66870;SDS011;53780;44.998;9.926;2022-10-16T17:13:18;22.27;;;10.60;;
66870;SDS011;53780;44.998;9.926;2022-10-16T17:16:27;19.23;;;10.25;;
66870;SDS011;53780;44.998;9.926;2022-10-16T17:19:36;21.52;;;10.35;;
66870;SDS011;53780;44.998;9.926;2022-10-16T17:22:41;19.30;;;10.73;;
66870;SDS011;53780;44.998;9.926;2022-10-16T17:25:45;21.52;;;10.63;;
66870;SDS011;53780;44.998;9.926;2022-10-16T17:28:52;19.30;;;10.37;;
66870;SDS011;53780;44.998;9.926;2022-10-16T17:31:58;22.00;;;10.68;;
66870;SDS011;53780;44.998;9.926;2022-10-16T17:35:02;19.58;;;9.82;;
66870;SDS011;53780;44.998;9.926;2022-10-16T17:38:06;17.70;;;9.95;;
66870;SDS011;53780;44.998;9.926;2022-10-16T17:41:14;16.60;;;9.07;;
66870;SDS011;53780;44.998;9.926;2022-10-16T17:44:26;17.13;;;9.77;;
66870;SDS011;53780;44.998;9.926;2022-10-16T17:47:29;18.98;;;9.25;;
66870;SDS011;53780;44.998;9.926;2022-10-16T17:50:33;19.58;;;10.05;;
66870;SDS011;53780;44.998;9.926;2022-10-16T17:53:38;21.13;;;11.00;;
66870;SDS011;53780;44.998;9.926;2022-10-16T17:56:42;22.70;;;11.10;;
66870;SDS011;53780;44.998;9.926;2022-10-16T17:59:46;18.67;;;10.43;;
66870;SDS011;53780;44.998;9.926;2022-10-16T18:02:50;19.02;;;9.93;;
66870;SDS011;53780;44.998;9.926;2022-10-16T18:05:54;16.80;;;10.15;;
66870;SDS011;53780;44.998;9.926;2022-10-16T18:08:59;18.70;;;10.10;;
66870;SDS011;53780;44.998;9.926;2022-10-16T18:12:04;18.70;;;10.27;;
66870;SDS011;53780;44.998;9.926;2022-10-16T18:15:08;18.03;;;10.83;;
66870;SDS011;53780;44.998;9.926;2022-10-16T18:18:13;19.55;;;10.73;;
66870;SDS011;53780;44.998;9.926;2022-10-16T18:21:18;21.33;;;11.52;;
66870;SDS011;53780;44.998;9.926;2022-10-16T18:24:23;27.08;;;12.85;;
66870;SDS011;53780;44.998;9.926;2022-10-16T18:27:27;26.92;;;14.18;;
66870;SDS011;53780;44.998;9.926;2022-10-16T18:30:31;24.33;;;13.00;;
66870;SDS011;53780;44.998;9.926;2022-10-16T18:33:35;26.48;;;13.38;;
66870;SDS011;53780;44.998;9.926;2022-10-16T18:36:39;25.65;;;13.35;;
66870;SDS011;53780;44.998;9.926;2022-10-16T18:39:45;33.30;;;14.77;;
66870;SDS011;53780;44.998;9.926;2022-10-16T18:42:52;30.27;;;15.95;;
66870;SDS011;53780;44.998;9.926;2022-10-16T18:45:57;35.60;;;16.90;;
66870;SDS011;53780;44.998;9.926;2022-10-16T18:49:02;31.08;;;15.82;;
66870;SDS011;53780;44.998;9.926;2022-10-16T18:52:07;29.10;;;14.63;;
66870;SDS011;53780;44.998;9.926;2022-10-16T18:55:11;21.30;;;12.50;;
66870;SDS011;53780;44.998;9.926;2022-10-16T18:58:15;25.63;;;12.80;;
66870;SDS011;53780;44.998;9.926;2022-10-16T19:01:20;43.33;;;11.47;;
66870;SDS011;53780;44.998;9.926;2022-10-16T19:04:26;22.85;;;11.10;;
66870;SDS011;53780;44.998;9.926;2022-10-16T19:07:30;26.45;;;13.52;;
66870;SDS011;53780;44.998;9.926;2022-10-16T19:10:35;27.50;;;13.88;;
66870;SDS011;53780;44.998;9.926;2022-10-16T19:13:40;28.83;;;13.48;;
66870;SDS011;53780;44.998;9.926;2022-10-16T19:16:45;27.60;;;13.90;;
66870;SDS011;53780;44.998;9.926;2022-10-16T19:19:48;30.13;;;14.70;;
66870;SDS011;53780;44.998;9.926;2022-10-16T19:22:52;33.40;;;15.57;;
66870;SDS011;53780;44.998;9.926;2022-10-16T19:26:09;28.42;;;14.50;;
66870;SDS011;53780;44.998;9.926;2022-10-16T19:29:14;36.28;;;18.67;;
66870;SDS011;53780;44.998;9.926;2022-10-16T19:32:19;36.70;;;18.57;;
66870;SDS011;53780;44.998;9.926;2022-10-16T19:35:22;41.78;;;18.42;;
66870;SDS011;53780;44.998;9.926;2022-10-16T19:38:29;37.72;;;18.85;;
66870;SDS011;53780;44.998;9.926;2022-10-16T19:41:33;38.03;;;19.83;;
66870;SDS011;53780;44.998;9.926;2022-10-16T19:44:39;37.88;;;19.17;;
66870;SDS011;53780;44.998;9.926;2022-10-16T19:47:42;37.73;;;19.27;;
66870;SDS011;53780;44.998;9.926;2022-10-16T19:50:48;37.40;;;19.23;;
66870;SDS011;53780;44.998;9.926;2022-10-16T19:53:59;43.25;;;20.95;;
66870;SDS011;53780;44.998;9.926;2022-10-16T19:57:05;38.33;;;18.65;;
66870;SDS011;53780;44.998;9.926;2022-10-16T20:00:09;40.63;;;19.48;;
66870;SDS011;53780;44.998;9.926;2022-10-16T20:03:14;39.87;;;19.47;;
66870;SDS011;53780;44.998;9.926;2022-10-16T20:06:19;37.15;;;19.80;;
66870;SDS011;53780;44.998;9.926;2022-10-16T20:09:24;38.15;;;18.92;;
66870;SDS011;53780;44.998;9.926;2022-10-16T20:12:28;38.47;;;18.50;;
66870;SDS011;53780;44.998;9.926;2022-10-16T20:15:32;39.17;;;19.50;;
66870;SDS011;53780;44.998;9.926;2022-10-16T20:18:40;35.83;;;18.27;;
66870;SDS011;53780;44.998;9.926;2022-10-16T20:21:44;35.15;;;18.27;;
66870;SDS011;53780;44.998;9.926;2022-10-16T20:24:48;34.53;;;18.05;;
66870;SDS011;53780;44.998;9.926;2022-10-16T20:27:52;35.95;;;17.83;;
66870;SDS011;53780;44.998;9.926;2022-10-16T20:30:55;34.58;;;18.42;;
66870;SDS011;53780;44.998;9.926;2022-10-16T20:34:04;36.87;;;17.77;;
66870;SDS011;53780;44.998;9.926;2022-10-16T20:37:10;35.30;;;18.08;;
66870;SDS011;53780;44.998;9.926;2022-10-16T20:40:15;33.97;;;17.40;;
66870;SDS011;53780;44.998;9.926;2022-10-16T20:43:19;36.05;;;18.38;;
66870;SDS011;53780;44.998;9.926;2022-10-16T20:46:24;34.03;;;17.50;;
66870;SDS011;53780;44.998;9.926;2022-10-16T20:49:30;35.07;;;17.73;;
66870;SDS011;53780;44.998;9.926;2022-10-16T20:52:34;33.47;;;18.13;;
66870;SDS011;53780;44.998;9.926;2022-10-16T20:55:38;34.33;;;17.77;;
66870;SDS011;53780;44.998;9.926;2022-10-16T20:58:42;33.38;;;17.42;;
66870;SDS011;53780;44.998;9.926;2022-10-16T21:01:48;30.55;;;17.35;;
66870;SDS011;53780;44.998;9.926;2022-10-16T21:04:52;33.63;;;17.13;;
66870;SDS011;53780;44.998;9.926;2022-10-16T21:07:57;33.25;;;17.52;;
66870;SDS011;53780;44.998;9.926;2022-10-16T21:11:04;33.13;;;16.77;;
66870;SDS011;53780;44.998;9.926;2022-10-16T21:14:13;30.90;;;16.52;;
66870;SDS011;53780;44.998;9.926;2022-10-16T21:17:17;34.85;;;16.83;;
66870;SDS011;53780;44.998;9.926;2022-10-16T21:20:21;34.13;;;16.80;;
66870;SDS011;53780;44.998;9.926;2022-10-16T21:23:25;33.53;;;16.90;;
66870;SDS011;53780;44.998;9.926;2022-10-16T21:26:30;31.58;;;16.10;;
66870;SDS011;53780;44.998;9.926;2022-10-16T21:29:34;31.60;;;15.65;;
66870;SDS011;53780;44.998;9.926;2022-10-16T21:32:37;32.28;;;16.50;;
66870;SDS011;53780;44.998;9.926;2022-10-16T21:35:42;33.63;;;17.30;;
66870;SDS011;53780;44.998;9.926;2022-10-16T21:38:45;30.92;;;16.75;;
66870;SDS011;53780;44.998;9.926;2022-10-16T21:41:49;32.10;;;16.42;;
66870;SDS011;53780;44.998;9.926;2022-10-16T21:44:54;34.22;;;17.75;;
66870;SDS011;53780;44.998;9.926;2022-10-16T21:47:58;32.25;;;15.80;;
66870;SDS011;53780;44.998;9.926;2022-10-16T21:51:03;31.80;;;16.77;;
66870;SDS011;53780;44.998;9.926;2022-10-16T21:54:07;32.60;;;16.48;;
66870;SDS011;53780;44.998;9.926;2022-10-16T21:57:13;29.63;;;15.48;;
66870;SDS011;53780;44.998;9.926;2022-10-16T22:00:17;29.42;;;15.88;;
66870;SDS011;53780;44.998;9.926;2022-10-16T22:03:21;30.95;;;16.40;;
66870;SDS011;53780;44.998;9.926;2022-10-16T22:06:25;34.27;;;16.70;;
66870;SDS011;53780;44.998;9.926;2022-10-16T22:09:30;30.90;;;16.88;;
66870;SDS011;53780;44.998;9.926;2022-10-16T22:12:34;34.83;;;16.65;;
66870;SDS011;53780;44.998;9.926;2022-10-16T22:15:38;33.33;;;16.52;;
66870;SDS011;53780;44.998;9.926;2022-10-16T22:18:50;32.60;;;16.27;;
66870;SDS011;53780;44.998;9.926;2022-10-16T22:21:54;34.70;;;16.40;;
66870;SDS011;53780;44.998;9.926;2022-10-16T22:24:59;35.25;;;16.50;;
66870;SDS011;53780;44.998;9.926;2022-10-16T22:28:03;31.17;;;16.27;;
66870;SDS011;53780;44.998;9.926;2022-10-16T22:31:09;32.60;;;16.60;;
66870;SDS011;53780;44.998;9.926;2022-10-16T22:34:13;29.58;;;16.20;;
66870;SDS011;53780;44.998;9.926;2022-10-16T22:37:17;34.17;;;16.57;;
66870;SDS011;53780;44.998;9.926;2022-10-16T22:40:21;33.33;;;17.08;;
66870;SDS011;53780;44.998;9.926;2022-10-16T22:43:25;31.30;;;15.68;;
66870;SDS011;53780;44.998;9.926;2022-10-16T22:46:29;34.00;;;16.23;;
66870;SDS011;53780;44.998;9.926;2022-10-16T22:49:34;33.90;;;16.08;;
66870;SDS011;53780;44.998;9.926;2022-10-16T22:52:37;33.87;;;16.90;;
66870;SDS011;53780;44.998;9.926;2022-10-16T22:55:41;31.33;;;16.25;;
66870;SDS011;53780;44.998;9.926;2022-10-16T22:58:46;34.72;;;15.70;;
66870;SDS011;53780;44.998;9.926;2022-10-16T23:01:50;30.90;;;15.48;;
66870;SDS011;53780;44.998;9.926;2022-10-16T23:04:54;28.50;;;15.15;;
66870;SDS011;53780;44.998;9.926;2022-10-16T23:07:58;33.63;;;15.83;;
66870;SDS011;53780;44.998;9.926;2022-10-16T23:11:06;28.30;;;14.55;;
66870;SDS011;53780;44.998;9.926;2022-10-16T23:14:12;29.30;;;15.27;;
66870;SDS011;53780;44.998;9.926;2022-10-16T23:17:15;32.97;;;15.30;;
66870;SDS011;53780;44.998;9.926;2022-10-16T23:20:19;29.10;;;14.95;;
66870;SDS011;53780;44.998;9.926;2022-10-16T23:23:23;28.97;;;14.33;;
66870;SDS011;53780;44.998;9.926;2022-10-16T23:26:27;29.55;;;14.00;;
66870;SDS011;53780;44.998;9.926;2022-10-16T23:29:31;30.13;;;14.70;;
66870;SDS011;53780;44.998;9.926;2022-10-16T23:32:34;30.98;;;14.57;;
66870;SDS011;53780;44.998;9.926;2022-10-16T23:35:39;31.63;;;16.27;;
66870;SDS011;53780;44.998;9.926;2022-10-16T23:38:43;31.27;;;15.30;;
66870;SDS011;53780;44.998;9.926;2022-10-16T23:41:47;32.15;;;16.63;;
66870;SDS011;53780;44.998;9.926;2022-10-16T23:44:51;31.92;;;15.93;;
66870;SDS011;53780;44.998;9.926;2022-10-16T23:47:55;31.75;;;16.17;;
66870;SDS011;53780;44.998;9.926;2022-10-16T23:50:58;29.05;;;15.00;;
66870;SDS011;53780;44.998;9.926;2022-10-16T23:54:03;27.60;;;13.70;;
66870;SDS011;53780;44.998;9.926;2022-10-16T23:57:07;26.58;;;13.23;;
